Terminal Aerodrome Forecast
Issued by NWS Flagstaff, AZ

Home | Current Version | Previous Version | Text Only | Print | Product List | Glossary On
Versions: 1 2 3 4 5 6 7 8 9 10 11 12 13 14 15 16 17 18 19 20 21 22
000
FTUS45 KFGZ 301735
TAFFLG
TAF
KFLG 301735Z 3018/0118 VRB06KT P6SM VCTS SCT060CB SCT100
      TEMPO 3020/3024 5SM TSRA BKN050CB
     FM010000 VRB06KT P6SM FEW050 BKN100
      TEMPO 0100/0102 6SM -TSRA BKN050CB=

USA.gov is the U.S. government's official web portal to all federal, state and local government web resources and services.